createdAt,value
2017-12-08T00:00:37.395Z,97546
2017-12-08T00:03:05.554Z,97548
2017-12-08T00:05:33.773Z,97540
2017-12-08T00:08:01.994Z,97540
2017-12-08T00:10:30.156Z,97532
2017-12-08T00:12:58.525Z,97533
2017-12-08T00:15:27.528Z,97526
2017-12-08T00:17:56.570Z,97529
2017-12-08T00:20:24.791Z,97522
2017-12-08T00:22:53.769Z,97525
2017-12-08T00:25:21.990Z,97518
2017-12-08T00:27:50.188Z,97518
2017-12-08T00:30:18.468Z,97517
2017-12-08T00:32:46.727Z,97514
2017-12-08T00:35:14.947Z,97513
2017-12-08T00:37:43.167Z,97502
2017-12-08T00:40:11.376Z,97491
2017-12-08T00:42:40.345Z,97487
2017-12-08T00:45:08.688Z,97475
2017-12-08T00:47:37.675Z,97472
2017-12-08T00:50:06.644Z,97468
2017-12-08T00:52:34.904Z,97462
2017-12-08T00:55:03.099Z,97463
2017-12-08T00:57:31.327Z,97457
2017-12-08T00:59:59.521Z,97455
2017-12-08T01:02:27.805Z,97453
2017-12-08T01:04:56.053Z,97449
2017-12-08T01:07:24.385Z,97444
2017-12-08T01:09:52.608Z,97448
2017-12-08T01:12:20.860Z,97429
2017-12-08T01:14:49.939Z,97432
2017-12-08T01:17:18.156Z,97442
2017-12-08T01:19:46.412Z,97440
2017-12-08T01:22:15.417Z,97432
2017-12-08T01:24:43.801Z,97428
2017-12-08T01:27:12.018Z,97418
2017-12-08T01:29:40.277Z,97409
2017-12-08T01:32:08.518Z,97405
2017-12-08T01:34:37.631Z,97389
2017-12-08T01:37:05.854Z,97396
2017-12-08T01:39:34.094Z,97388
2017-12-08T01:42:02.301Z,97387
2017-12-08T01:44:30.562Z,97388
2017-12-08T01:46:58.792Z,97379
2017-12-08T01:49:27.032Z,97380
2017-12-08T01:51:55.231Z,97372
2017-12-08T01:54:24.272Z,97366
2017-12-08T01:56:52.531Z,97365
2017-12-08T01:59:20.769Z,97356
2017-12-08T02:01:49.777Z,97347
2017-12-08T02:04:18.768Z,97334
2017-12-08T02:06:47.721Z,97326
2017-12-08T02:09:15.947Z,97325
2017-12-08T02:11:44.206Z,97318
2017-12-08T02:14:13.386Z,97315
2017-12-08T02:16:41.686Z,97319
2017-12-08T02:19:10.640Z,97313
2017-12-08T02:21:38.904Z,97312
2017-12-08T02:24:07.139Z,97312
2017-12-08T02:26:35.432Z,97297
2017-12-08T02:29:03.643Z,97288
2017-12-08T02:31:31.862Z,97294
2017-12-08T02:34:00.862Z,97282
2017-12-08T02:36:29.064Z,97287
2017-12-08T02:38:57.393Z,97290
2017-12-08T02:41:25.600Z,97278
2017-12-08T02:43:53.879Z,97280
2017-12-08T02:46:22.140Z,97266
2017-12-08T02:48:51.119Z,97260
2017-12-08T02:51:20.098Z,97258
2017-12-08T02:53:48.333Z,97278
2017-12-08T02:56:16.577Z,97265
2017-12-08T02:58:45.617Z,97268
2017-12-08T03:22:29.846Z,97237
2017-12-08T03:24:58.111Z,97233
2017-12-08T03:27:26.391Z,97228
2017-12-08T03:29:54.564Z,97216
2017-12-08T03:32:22.851Z,97212
2017-12-08T03:34:51.150Z,97206
2017-12-08T03:37:20.171Z,97209
2017-12-08T03:39:48.413Z,97209
2017-12-08T03:42:17.413Z,97216
2017-12-08T03:44:46.547Z,97214
2017-12-08T03:47:14.806Z,97198
2017-12-08T03:49:43.046Z,97200
2017-12-08T03:52:11.306Z,97198
2017-12-08T03:54:39.542Z,97192
2017-12-08T03:57:07.819Z,97186
2017-12-08T03:59:36.124Z,97187
2017-12-08T04:02:04.423Z,97185
2017-12-08T04:04:32.623Z,97182
2017-12-08T04:07:01.583Z,97176
2017-12-08T04:09:29.841Z,97176
2017-12-08T04:11:58.060Z,97182
2017-12-08T04:14:27.136Z,97181
2017-12-08T04:16:55.380Z,97171
2017-12-08T04:19:23.679Z,97158
2017-12-08T04:21:51.959Z,97155
2017-12-08T04:24:20.217Z,97148
2017-12-08T04:26:48.397Z,97132
2017-12-08T04:29:16.605Z,97129
2017-12-08T04:31:44.837Z,97130
2017-12-08T04:34:13.048Z,97118
2017-12-08T04:36:41.273Z,97121
2017-12-08T04:39:09.496Z,97124
2017-12-08T04:41:37.668Z,97105
2017-12-08T04:44:05.913Z,97103
2017-12-08T04:46:34.130Z,97100
2017-12-08T04:49:03.096Z,97107
2017-12-08T04:51:31.290Z,97098
2017-12-08T04:53:59.508Z,97088
2017-12-08T04:56:27.721Z,97060
2017-12-08T04:58:55.985Z,97062
2017-12-08T05:01:24.192Z,97071
2017-12-08T05:03:52.381Z,97060
2017-12-08T05:06:21.374Z,97053
2017-12-08T05:08:49.577Z,97071
2017-12-08T05:11:17.737Z,97063
2017-12-08T05:13:46.674Z,97069
2017-12-08T05:16:14.834Z,97057
2017-12-08T05:18:42.997Z,97032
2017-12-08T05:21:11.185Z,97027
2017-12-08T05:23:39.342Z,97050
2017-12-08T05:26:07.506Z,97044
2017-12-08T05:28:35.673Z,97023
2017-12-08T05:31:04.609Z,97029
2017-12-08T05:33:32.774Z,97018
2017-12-08T05:36:00.943Z,97006
2017-12-08T05:38:29.093Z,97005
2017-12-08T05:40:58.012Z,97015
2017-12-08T05:43:26.167Z,97004
2017-12-08T05:45:54.354Z,97004
2017-12-08T05:48:22.539Z,97016
2017-12-08T05:50:50.694Z,97013
2017-12-08T05:53:18.845Z,97016
2017-12-08T05:55:47.822Z,97010
2017-12-08T05:58:15.977Z,96998
2017-12-08T06:00:44.156Z,96986
2017-12-08T06:03:12.323Z,96979
2017-12-08T06:05:40.497Z,96987
2017-12-08T06:08:08.643Z,96970
2017-12-08T06:10:36.806Z,96968
2017-12-08T06:13:05.002Z,96972
2017-12-08T06:15:33.152Z,96977
2017-12-08T06:18:01.312Z,96966
2017-12-08T06:20:30.238Z,96979
2017-12-08T06:22:58.401Z,96975
2017-12-08T06:25:26.554Z,96973
2017-12-08T06:27:55.478Z,96971
2017-12-08T06:30:23.635Z,96968
2017-12-08T06:32:51.788Z,96970
2017-12-08T06:35:20.720Z,96965
2017-12-08T06:37:48.870Z,96969
2017-12-08T06:40:17.036Z,96963
2017-12-08T06:42:45.959Z,96960
2017-12-08T06:45:14.281Z,96956
2017-12-08T06:47:42.442Z,96945
2017-12-08T06:50:10.593Z,96948
2017-12-08T06:52:38.746Z,96944
2017-12-08T06:55:06.901Z,96933
2017-12-08T06:57:35.838Z,96932
2017-12-08T07:00:04.034Z,96931
2017-12-08T07:02:32.201Z,96939
2017-12-08T07:05:00.362Z,96934
2017-12-08T07:07:28.545Z,96948
2017-12-08T07:09:56.706Z,96930
2017-12-08T07:12:24.863Z,96941
2017-12-08T07:14:53.026Z,96937
2017-12-08T07:17:21.194Z,96931
2017-12-08T07:19:50.108Z,96943
2017-12-08T07:22:18.265Z,96933
2017-12-08T07:24:46.422Z,96940
2017-12-08T07:27:15.333Z,96937
2017-12-08T07:29:43.485Z,96942
2017-12-08T07:32:12.425Z,96938
2017-12-08T07:34:40.809Z,96945
2017-12-08T07:37:08.973Z,96940
2017-12-08T07:39:37.126Z,96949
2017-12-08T07:42:05.293Z,96937
2017-12-08T07:44:33.457Z,96949
2017-12-08T07:47:02.383Z,96943
2017-12-08T07:49:30.542Z,96945
2017-12-08T07:51:58.690Z,96941
2017-12-08T07:54:26.842Z,96935
2017-12-08T07:56:55.039Z,96924
2017-12-08T07:59:24.897Z,96935
2017-12-08T08:01:53.057Z,96922
2017-12-08T08:04:21.236Z,96928
2017-12-08T08:06:49.418Z,96940
2017-12-08T08:09:17.606Z,96930
2017-12-08T08:11:45.785Z,96927
2017-12-08T08:14:13.954Z,96915
2017-12-08T08:16:42.206Z,96915
2017-12-08T08:19:10.375Z,96905
2017-12-08T08:21:38.547Z,96915
2017-12-08T08:24:06.705Z,96912
2017-12-08T08:26:35.663Z,96909
2017-12-08T08:29:03.838Z,96909
2017-12-08T08:31:31.994Z,96913
2017-12-08T08:34:00.159Z,96913
2017-12-08T08:36:28.329Z,96910
2017-12-08T08:38:56.485Z,96914
2017-12-08T08:41:24.641Z,96914
2017-12-08T08:43:53.574Z,96906
2017-12-08T08:46:21.753Z,96918
2017-12-08T08:48:49.924Z,96914
2017-12-08T08:51:18.080Z,96909
2017-12-08T08:53:46.241Z,96920
2017-12-08T08:56:15.159Z,96926
2017-12-08T08:58:43.314Z,96926
2017-12-08T09:01:11.482Z,96924
2017-12-08T09:03:40.406Z,96927
2017-12-08T09:06:08.562Z,96926
2017-12-08T09:08:36.721Z,96925
2017-12-08T09:11:05.648Z,96922
2017-12-08T09:13:33.814Z,96935
2017-12-08T09:16:01.973Z,96938
2017-12-08T09:18:30.134Z,96939
2017-12-08T09:20:59.058Z,96932
2017-12-08T09:23:27.210Z,96930
2017-12-08T09:25:56.133Z,96917
2017-12-08T09:28:24.306Z,96915
2017-12-08T09:30:52.466Z,96910
2017-12-08T09:33:24.504Z,96903
2017-12-08T09:35:53.429Z,96910
2017-12-08T09:38:21.589Z,96907
2017-12-08T09:40:49.758Z,96914
2017-12-08T09:43:17.928Z,96906
2017-12-08T09:45:46.106Z,96902
2017-12-08T09:48:14.306Z,96885
2017-12-08T09:50:42.491Z,96889
2017-12-08T09:53:10.655Z,96883
2017-12-08T09:55:38.827Z,96883
2017-12-08T09:58:06.986Z,96884
2017-12-08T10:00:35.176Z,96874
2017-12-08T10:03:03.334Z,96879
2017-12-08T10:05:31.502Z,96866
2017-12-08T10:07:59.658Z,96867
2017-12-08T10:10:28.589Z,96862
2017-12-08T10:12:56.745Z,96852
2017-12-08T10:15:24.910Z,96857
2017-12-08T10:17:53.867Z,96844
2017-12-08T10:20:22.034Z,96848
2017-12-08T10:22:50.194Z,96848
2017-12-08T10:25:18.358Z,96845
2017-12-08T10:27:46.551Z,96848
2017-12-08T10:30:14.766Z,96843
2017-12-08T10:32:43.748Z,96841
2017-12-08T10:35:11.894Z,96853
2017-12-08T10:37:40.074Z,96843
2017-12-08T10:40:08.234Z,96852
2017-12-08T10:42:36.395Z,96840
2017-12-08T10:45:04.575Z,96845
2017-12-08T10:47:32.738Z,96844
2017-12-08T10:50:00.927Z,96847
2017-12-08T10:52:29.086Z,96844
2017-12-08T10:54:57.245Z,96841
2017-12-08T10:57:25.417Z,96838
2017-12-08T10:59:53.610Z,96833
2017-12-08T11:02:21.773Z,96836
2017-12-08T11:04:49.935Z,96822
2017-12-08T11:07:18.867Z,96820
2017-12-08T11:09:47.031Z,96818
2017-12-08T11:12:15.193Z,96809
2017-12-08T11:14:43.358Z,96808
2017-12-08T11:17:11.538Z,96813
2017-12-08T11:19:39.780Z,96802
2017-12-08T11:22:08.702Z,96802
2017-12-08T11:24:36.857Z,96792
2017-12-08T11:27:05.787Z,96782
2017-12-08T11:29:33.985Z,96783
2017-12-08T11:32:02.162Z,96784
2017-12-08T11:34:30.327Z,96787
2017-12-08T11:36:58.495Z,96785
2017-12-08T11:39:26.649Z,96782
2017-12-08T11:41:54.806Z,96775
2017-12-08T11:44:22.979Z,96781
2017-12-08T11:46:51.901Z,96773
2017-12-08T11:49:20.090Z,96778
2017-12-08T11:51:48.268Z,96773
2017-12-08T11:54:16.427Z,96772
2017-12-08T11:56:44.598Z,96770
2017-12-08T11:59:12.758Z,96760
2017-12-08T12:01:40.916Z,96761
2017-12-08T12:04:09.842Z,96753
2017-12-08T12:06:38.030Z,96749
2017-12-08T12:09:06.188Z,96749
2017-12-08T12:11:34.362Z,96750
2017-12-08T12:14:02.553Z,96755
2017-12-08T12:16:30.720Z,96751
2017-12-08T12:18:58.880Z,96752
2017-12-08T12:21:27.035Z,96756
2017-12-08T12:23:55.228Z,96755
2017-12-08T12:26:23.450Z,96754
2017-12-08T12:28:51.601Z,96756
2017-12-08T12:31:19.768Z,96752
2017-12-08T12:33:47.931Z,96747
2017-12-08T12:36:16.087Z,96745
2017-12-08T12:38:44.252Z,96742
2017-12-08T12:41:13.185Z,96737
2017-12-08T12:43:41.381Z,96739
2017-12-08T12:46:09.577Z,96742
2017-12-08T12:48:38.502Z,96742
2017-12-08T12:51:06.653Z,96734
2017-12-08T12:53:35.591Z,96734
2017-12-08T12:56:03.769Z,96729
2017-12-08T12:58:31.920Z,96732
2017-12-08T13:01:00.090Z,96731
2017-12-08T13:03:28.250Z,96728
2017-12-08T13:05:57.175Z,96722
2017-12-08T13:08:25.335Z,96723
2017-12-08T13:10:53.544Z,96720
2017-12-08T13:13:21.673Z,96710
2017-12-08T13:15:49.841Z,96713
2017-12-08T13:18:18.769Z,96706
2017-12-08T13:20:46.969Z,96707
2017-12-08T13:23:15.143Z,96708
2017-12-08T13:25:43.392Z,96708
2017-12-08T13:28:11.549Z,96706
2017-12-08T13:30:39.711Z,96704
2017-12-08T13:33:07.862Z,96703
2017-12-08T13:35:36.828Z,96700
2017-12-08T13:38:04.993Z,96703
2017-12-08T13:40:33.158Z,96697
2017-12-08T13:43:01.322Z,96690
2017-12-08T13:45:29.478Z,96687
2017-12-08T13:47:57.642Z,96693
2017-12-08T13:50:26.643Z,96687
2017-12-08T13:52:55.052Z,96690
2017-12-08T13:55:41.069Z,96692
2017-12-08T13:58:09.230Z,96691
2017-12-08T14:00:37.389Z,96695
2017-12-08T14:03:05.667Z,96684
2017-12-08T14:05:33.822Z,96692
2017-12-08T14:08:02.031Z,96686
2017-12-08T14:10:30.196Z,96685
2017-12-08T14:12:58.383Z,96690
2017-12-08T14:15:26.545Z,96692
2017-12-08T14:17:54.727Z,96696
2017-12-08T14:20:22.886Z,96699
2017-12-08T14:22:51.045Z,96694
2017-12-08T14:25:19.207Z,96695
2017-12-08T14:27:47.364Z,96696
2017-12-08T14:30:16.301Z,96700
2017-12-08T14:32:44.462Z,96701
2017-12-08T14:35:12.618Z,96705
2017-12-08T14:37:41.554Z,96703
2017-12-08T14:40:09.715Z,96708
2017-12-08T14:42:37.889Z,96714
2017-12-08T14:45:06.066Z,96715
2017-12-08T14:47:34.259Z,96717
2017-12-08T14:50:03.347Z,96724
2017-12-08T14:52:31.522Z,96726
2017-12-08T14:54:59.677Z,96725
2017-12-08T14:57:27.839Z,96726
2017-12-08T14:59:56.028Z,96730
2017-12-08T15:02:24.188Z,96729
2017-12-08T15:04:52.355Z,96727
2017-12-08T15:07:21.275Z,96726
2017-12-08T15:09:49.463Z,96731
2017-12-08T15:12:17.644Z,96735
2017-12-08T15:14:45.803Z,96734
2017-12-08T15:17:13.974Z,96735
2017-12-08T15:19:42.271Z,96742
2017-12-08T15:22:10.440Z,96739
2017-12-08T15:24:38.647Z,96739
2017-12-08T15:27:06.822Z,96744
2017-12-08T15:29:35.002Z,96749
2017-12-08T15:32:03.952Z,96749
2017-12-08T15:34:32.116Z,96754
2017-12-08T15:37:00.289Z,96750
2017-12-08T15:39:28.476Z,96752
2017-12-08T15:41:56.639Z,96752
2017-12-08T15:44:24.816Z,96752
2017-12-08T15:46:52.974Z,96750
2017-12-08T15:49:21.198Z,96746
2017-12-08T15:51:49.539Z,96745
2017-12-08T15:54:17.801Z,96744
2017-12-08T15:56:45.972Z,96743
2017-12-08T15:59:14.165Z,96741
2017-12-08T16:01:42.356Z,96736
2017-12-08T16:04:10.567Z,96737
2017-12-08T16:06:38.744Z,96731
2017-12-08T16:09:07.690Z,96729
2017-12-08T16:11:35.874Z,96726
2017-12-08T16:14:04.041Z,96730
2017-12-08T16:16:32.222Z,96733
2017-12-08T16:19:00.393Z,96745
2017-12-08T16:21:28.571Z,96737
2017-12-08T16:23:56.745Z,96741
2017-12-08T16:26:24.911Z,96733
2017-12-08T16:28:53.086Z,96729
2017-12-08T16:31:21.270Z,96727
2017-12-08T16:33:49.465Z,96726
2017-12-08T16:36:18.585Z,96727
2017-12-08T16:38:47.518Z,96733
2017-12-08T16:41:15.706Z,96733
2017-12-08T16:43:43.940Z,96730
2017-12-08T16:46:12.906Z,96730
2017-12-08T16:48:41.124Z,96729
2017-12-08T16:51:09.297Z,96738
2017-12-08T16:53:37.460Z,96748
2017-12-08T16:56:06.393Z,96749
2017-12-08T16:58:34.655Z,96745
2017-12-08T17:01:02.934Z,96753
2017-12-08T17:03:31.105Z,96749
2017-12-08T17:05:59.274Z,96746
2017-12-08T17:08:27.454Z,96757
2017-12-08T17:10:55.610Z,96755
2017-12-08T17:13:23.774Z,96758
2017-12-08T17:15:52.725Z,96760
2017-12-08T17:18:20.923Z,96771
2017-12-08T17:20:49.181Z,96777
2017-12-08T17:23:17.382Z,96795
2017-12-08T17:25:46.355Z,96794
2017-12-08T17:28:14.534Z,96794
2017-12-08T17:30:42.760Z,96803
2017-12-08T17:33:11.060Z,96800
2017-12-08T17:35:39.269Z,96791
2017-12-08T17:38:08.254Z,96792
2017-12-08T17:40:36.452Z,96788
2017-12-08T17:43:05.449Z,96783
2017-12-08T17:45:34.435Z,96785
2017-12-08T17:48:03.375Z,96789
2017-12-08T17:50:31.575Z,96792
2017-12-08T17:52:59.794Z,96794
2017-12-08T17:55:27.991Z,96785
2017-12-08T17:57:56.217Z,96794
2017-12-08T18:00:24.462Z,96789
2017-12-08T18:02:52.622Z,96802
2017-12-08T18:05:20.833Z,96784
2017-12-08T18:07:49.032Z,96793
2017-12-08T18:10:18.056Z,96785
2017-12-08T18:12:46.273Z,96792
2017-12-08T18:15:14.584Z,96788
2017-12-08T18:17:43.526Z,96783
2017-12-08T18:20:11.711Z,96783
2017-12-08T18:22:39.930Z,96787
2017-12-08T18:25:08.906Z,96790
2017-12-08T18:27:37.833Z,96784
2017-12-08T18:30:06.088Z,96778
2017-12-08T18:32:35.069Z,96764
2017-12-08T18:35:04.032Z,96763
2017-12-08T18:37:32.210Z,96776
2017-12-08T18:40:00.423Z,96773
2017-12-08T18:42:29.377Z,96777
2017-12-08T18:44:57.574Z,96773
2017-12-08T18:47:25.764Z,96766
2017-12-08T18:49:54.745Z,96765
2017-12-08T18:52:22.935Z,96774
2017-12-08T18:54:51.946Z,96771
2017-12-08T18:57:20.127Z,96766
2017-12-08T18:59:48.385Z,96761
2017-12-08T19:02:17.400Z,96754
2017-12-08T19:04:45.575Z,96750
2017-12-08T19:07:13.779Z,96751
2017-12-08T19:09:41.966Z,96735
2017-12-08T19:12:10.141Z,96718
2017-12-08T19:14:38.327Z,96714
2017-12-08T19:17:06.567Z,96747
2017-12-08T19:19:34.834Z,96751
2017-12-08T19:22:03.058Z,96733
2017-12-08T19:24:31.279Z,96731
2017-12-08T19:26:59.469Z,96745
2017-12-08T19:29:27.653Z,96745
2017-12-08T19:31:55.897Z,96743
2017-12-08T19:34:24.072Z,96743
2017-12-08T19:36:52.266Z,96742
2017-12-08T19:39:20.472Z,96741
2017-12-08T19:41:48.669Z,96748
2017-12-08T19:44:17.624Z,96748
2017-12-08T19:46:46.628Z,96753
2017-12-08T19:49:14.815Z,96741
2017-12-08T19:51:43.023Z,96738
2017-12-08T19:54:11.187Z,96752
2017-12-08T19:56:40.121Z,96753
2017-12-08T19:59:08.311Z,96757
2017-12-08T20:01:36.512Z,96766
2017-12-08T20:04:04.775Z,96772
2017-12-08T20:06:33.753Z,96775
2017-12-08T20:09:01.941Z,96767
2017-12-08T20:11:30.153Z,96762
2017-12-08T20:13:59.095Z,96772
2017-12-08T20:16:27.297Z,96769
2017-12-08T20:18:55.496Z,96772
2017-12-08T20:21:24.469Z,96777
2017-12-08T20:23:52.669Z,96777
2017-12-08T20:26:21.661Z,96777
2017-12-08T20:28:49.827Z,96779
2017-12-08T20:31:18.809Z,96781
2017-12-08T20:33:47.786Z,96774
2017-12-08T20:36:15.958Z,96771
2017-12-08T20:38:44.163Z,96766
2017-12-08T20:41:13.125Z,96757
2017-12-08T20:43:41.305Z,96753
2017-12-08T20:46:09.511Z,96752
2017-12-08T20:48:38.484Z,96773
2017-12-08T20:51:06.664Z,96783
2017-12-08T20:53:35.648Z,96780
2017-12-08T20:56:03.813Z,96786
2017-12-08T20:58:32.002Z,96788
2017-12-08T21:01:00.183Z,96788
2017-12-08T21:03:29.150Z,96788
2017-12-08T21:05:57.421Z,96800
2017-12-08T21:08:25.601Z,96810
2017-12-08T21:10:53.775Z,96825
2017-12-08T21:13:21.960Z,96834
2017-12-08T21:15:50.152Z,96826
2017-12-08T21:18:19.177Z,96819
2017-12-08T21:20:47.380Z,96821
2017-12-08T21:23:15.597Z,96822
2017-12-08T21:25:45.621Z,96818
2017-12-08T21:28:14.603Z,96815
2017-12-08T21:30:42.786Z,96823
2017-12-08T21:33:11.813Z,96817
2017-12-08T21:35:40.050Z,96823
2017-12-08T21:38:09.015Z,96827
2017-12-08T21:40:37.214Z,96830
2017-12-08T21:43:05.387Z,96844
2017-12-08T21:45:33.581Z,96840
2017-12-08T21:48:02.552Z,96816
2017-12-08T21:50:30.785Z,96821
2017-12-08T21:52:58.993Z,96819
2017-12-08T21:55:27.191Z,96826
2017-12-08T21:57:56.223Z,96831
2017-12-08T22:00:24.500Z,96818
2017-12-08T22:02:52.770Z,96820
2017-12-08T22:05:20.950Z,96833
2017-12-08T22:07:49.148Z,96853
2017-12-08T22:10:17.352Z,96850
2017-12-08T22:12:45.569Z,96839
2017-12-08T22:15:13.727Z,96831
2017-12-08T22:17:42.662Z,96821
2017-12-08T22:20:10.867Z,96807
2017-12-08T22:22:39.031Z,96789
2017-12-08T22:25:07.225Z,96782
2017-12-08T22:27:36.173Z,96784
2017-12-08T22:30:04.384Z,96789
2017-12-08T22:32:32.565Z,96781
2017-12-08T22:35:00.730Z,96780
2017-12-08T22:37:28.915Z,96793
2017-12-08T22:39:57.101Z,96808
2017-12-08T22:42:27.617Z,96814
2017-12-08T22:44:55.836Z,96811
2017-12-08T22:47:23.992Z,96802
2017-12-08T22:49:52.189Z,96797
2017-12-08T22:52:20.392Z,96806
2017-12-08T22:54:48.617Z,96793
2017-12-08T22:57:17.585Z,96774
2017-12-08T22:59:45.754Z,96779
2017-12-08T23:02:13.923Z,96780
2017-12-08T23:04:42.098Z,96768
2017-12-08T23:07:10.268Z,96766
2017-12-08T23:09:38.429Z,96763
2017-12-08T23:12:06.616Z,96774
2017-12-08T23:14:34.822Z,96756
2017-12-08T23:17:03.056Z,96748
2017-12-08T23:19:31.253Z,96754
2017-12-08T23:21:59.432Z,96759
2017-12-08T23:24:27.630Z,96755
2017-12-08T23:26:56.554Z,96738
2017-12-08T23:29:24.773Z,96728
2017-12-08T23:31:52.976Z,96746
2017-12-08T23:34:21.152Z,96743
2017-12-08T23:36:49.343Z,96738
2017-12-08T23:39:17.509Z,96748
2017-12-08T23:41:45.710Z,96749
2017-12-08T23:44:13.949Z,96745
2017-12-08T23:46:42.902Z,96755
2017-12-08T23:49:11.077Z,96764
2017-12-08T23:51:39.288Z,96776
2017-12-08T23:54:08.255Z,96784
2017-12-08T23:56:36.482Z,96786
2017-12-08T23:59:04.686Z,96798
